Time;durP1;ratioP1;P1;durP2;ratioP2;P2;SDS_P1;SDS_P2;PMS_P1;PMS_P2;Temp;Humidity;BMP_temperature;BMP_pressure;BME280_temperature;BME280_humidity;BME280_pressure;Samples;Min_cycle;Max_cycle;Signal;HPM_P1;HPM_P2
2022/04/26 03:37:19;;;;;;;34.47;18.83;;;14.40;55.90;;;;;;7365487;19;20115;-76
2022/04/26 03:39:48;;;;;;;32.07;19.63;;;14.30;56.10;;;;;;7370567;19;20010;-76
2022/04/26 03:42:16;;;;;;;31.35;17.30;;;14.40;56.10;;;;;;7365297;19;20015;-77
2022/04/26 03:44:45;;;;;;;32.20;16.92;;;14.40;55.60;;;;;;7366892;19;20022;-76
2022/04/26 03:47:17;;;;;;;34.17;16.92;;;14.30;55.00;;;;;;7367990;19;20007;-76
2022/04/26 03:49:46;;;;;;;;;;;14.30;55.00;;;;;;7390835;19;20035;-76
2022/04/26 03:52:14;;;;;;;31.80;17.50;;;14.30;55.10;;;;;;7369134;19;20295;-76
2022/04/26 03:54:43;;;;;;;30.55;17.92;;;14.20;55.10;;;;;;7372662;19;20329;-76
2022/04/26 03:57:12;;;;;;;31.05;17.38;;;14.20;55.20;;;;;;7371928;19;20090;-76
2022/04/26 03:59:41;;;;;;;32.17;17.58;;;14.20;55.30;;;;;;7370439;19;20388;-76
2022/04/26 04:02:10;;;;;;;36.38;19.38;;;14.20;55.40;;;;;;7370395;19;20028;-76
2022/04/26 04:04:41;;;;;;;34.72;19.10;;;14.10;55.90;;;;;;7390429;19;20032;-76
2022/04/26 04:07:10;;;;;;;31.83;17.80;;;14.00;56.00;;;;;;7369427;19;20367;-76
2022/04/26 04:09:38;;;;;;;34.25;19.88;;;13.90;56.20;;;;;;7370282;19;20011;-76
2022/04/26 04:12:08;;;;;;;32.63;19.20;;;13.90;56.40;;;;;;7370049;19;20082;-76
2022/04/26 04:14:37;;;;;;;35.22;19.95;;;13.90;56.60;;;;;;7371637;19;20014;-76
2022/04/26 04:17:06;;;;;;;32.05;17.63;;;13.90;56.70;;;;;;7371342;19;20046;-76
2022/04/26 04:19:35;;;;;;;28.20;17.67;;;13.90;56.50;;;;;;7393534;19;20470;-76
2022/04/26 04:22:07;;;;;;;30.08;17.42;;;13.90;55.90;;;;;;7370865;19;20014;-77
2022/04/26 04:24:36;;;;;;;30.48;17.42;;;13.90;55.70;;;;;;7370126;19;20014;-76
2022/04/26 04:27:05;;;;;;;31.60;19.35;;;13.90;55.60;;;;;;7366793;19;20101;-76
2022/04/26 04:29:34;;;;;;;29.25;18.20;;;13.90;55.90;;;;;;7371607;19;20014;-76
2022/04/26 04:32:03;;;;;;;30.60;18.50;;;13.90;56.10;;;;;;7367995;19;20037;-76
2022/04/26 04:34:31;;;;;;;32.42;18.85;;;13.90;56.10;;;;;;7391833;19;20090;-76
2022/04/26 04:37:00;;;;;;;30.83;17.77;;;13.90;56.00;;;;;;7367284;19;20018;-76
2022/04/26 04:39:31;;;;;;;32.17;19.27;;;13.90;55.90;;;;;;7369130;19;20481;-76
2022/04/26 04:42:00;;;;;;;30.27;18.17;;;13.90;56.00;;;;;;7365631;19;20093;-76
2022/04/26 04:44:29;;;;;;;34.30;20.30;;;13.90;56.00;;;;;;7370167;19;20006;-76
2022/04/26 04:47:00;;;;;;;36.63;18.58;;;13.90;56.00;;;;;;7371258;19;20117;-76
2022/04/26 04:49:29;;;;;;;40.53;20.23;;;13.80;56.00;;;;;;7391989;19;20614;-76
2022/04/26 04:51:57;;;;;;;38.83;19.52;;;13.80;56.10;;;;;;7366233;19;20018;-76
2022/04/26 04:54:26;;;;;;;32.38;19.38;;;13.80;56.10;;;;;;7366833;19;20017;-76
2022/04/26 04:56:58;;;;;;;38.28;19.05;;;13.80;56.20;;;;;;7370245;19;20046;-76
2022/04/26 04:59:26;;;;;;;30.98;18.75;;;13.80;56.20;;;;;;7367630;19;20073;-76
2022/04/26 05:01:55;;;;;;;33.90;19.27;;;13.70;56.20;;;;;;7369244;19;20094;-75
2022/04/26 05:04:24;;;;;;;40.25;19.85;;;13.80;56.40;;;;;;7390372;19;20025;-76
2022/04/26 05:06:52;;;;;;;38.67;21.05;;;13.80;56.20;;;;;;7368310;19;20093;-76
2022/04/26 05:09:21;;;;;;;45.67;20.80;;;13.80;56.20;;;;;;7368827;19;20014;-76
2022/04/26 05:11:50;;;;;;;36.08;20.38;;;13.80;56.40;;;;;;7370206;19;20022;-76
2022/04/26 05:14:21;;;;;;;39.20;20.50;;;13.80;56.60;;;;;;7369593;19;20014;-76
2022/04/26 05:16:50;;;;;;;41.50;22.38;;;13.70;56.50;;;;;;7373287;19;20022;-75
2022/04/26 05:19:19;;;;;;;34.40;21.02;;;13.70;56.60;;;;;;7388258;19;20585;-76
2022/04/26 05:21:47;;;;;;;41.28;23.38;;;13.80;56.70;;;;;;7368095;19;20021;-76
2022/04/26 05:26:57;;;;;;;34.38;20.45;;;13.70;57.20;;;;;;7369428;19;20026;-76
2022/04/26 05:29:28;;;;;;;37.38;21.40;;;13.70;57.00;;;;;;7369380;19;20347;-76
2022/04/26 05:31:57;;;;;;;42.47;20.83;;;13.80;56.90;;;;;;7366472;19;20019;-76
2022/04/26 05:34:27;;;;;;;39.78;21.70;;;13.80;56.90;;;;;;7388449;19;20015;-76
2022/04/26 05:36:57;;;;;;;38.25;21.60;;;13.80;56.90;;;;;;7367217;19;20070;-76
2022/04/26 05:39:26;;;;;;;34.00;20.00;;;13.80;57.40;;;;;;7369820;19;20015;-76
2022/04/26 05:41:54;;;;;;;42.08;22.27;;;13.90;57.10;;;;;;7369448;19;20098;-76
2022/04/26 05:44:23;;;;;;;38.45;22.50;;;13.90;57.00;;;;;;7370742;19;20021;-76
2022/04/26 05:46:58;;;;;;;39.30;22.40;;;13.90;57.00;;;;;;7371773;19;20018;-76
2022/04/26 05:49:27;;;;;;;40.03;21.85;;;14.00;57.20;;;;;;7393618;19;20029;-76
2022/04/26 05:51:56;;;;;;;40.70;22.95;;;14.00;57.40;;;;;;7373641;19;20105;-76
2022/04/26 05:54:24;;;;;;;39.33;22.42;;;14.00;57.50;;;;;;7376578;19;20027;-77
2022/04/26 05:56:54;;;;;;;53.10;23.60;;;14.10;57.70;;;;;;7375570;19;20331;-76
2022/04/26 05:59:23;;;;;;;47.40;24.60;;;14.10;57.70;;;;;;7375010;19;20011;-76
2022/04/26 06:01:55;;;;;;;45.97;25.63;;;14.20;57.90;;;;;;7374741;19;20450;-76
2022/04/26 06:04:24;;;;;;;47.40;26.00;;;14.30;58.10;;;;;;7396242;19;20089;-76
2022/04/26 06:06:52;;;;;;;47.60;26.17;;;14.30;58.10;;;;;;7373884;19;20018;-77
2022/04/26 06:09:21;;;;;;;46.83;25.83;;;14.40;58.20;;;;;;7374235;19;20017;-76
2022/04/26 06:11:50;;;;;;;51.35;28.48;;;14.40;58.20;;;;;;7377714;19;20021;-77
2022/04/26 06:14:20;;;;;;;50.88;29.58;;;14.50;58.20;;;;;;7373972;19;20038;-76
2022/04/26 06:16:49;;;;;;;55.42;29.40;;;14.50;58.00;;;;;;7393646;19;20022;-75
2022/04/26 06:19:20;;;;;;;60.88;31.17;;;14.50;58.20;;;;;;7393506;19;20033;-77
2022/04/26 06:21:49;;;;;;;56.92;30.33;;;14.50;58.30;;;;;;7373193;19;20014;-77
2022/04/26 06:24:18;;;;;;;56.08;30.17;;;14.50;58.50;;;;;;7375676;19;20024;-77
2022/04/26 06:26:46;;;;;;;54.97;31.15;;;14.50;58.40;;;;;;7372056;19;20477;-76
2022/04/26 06:29:15;;;;;;;59.78;32.75;;;14.60;58.50;;;;;;7372792;19;20056;-76
2022/04/26 06:31:44;;;;;;;55.75;33.30;;;14.70;58.60;;;;;;7392273;19;20078;-76
2022/04/26 06:34:16;;;;;;;;;;;14.70;58.20;;;;;;7375202;19;20043;-76
2022/04/26 06:36:47;;;;;;;60.88;34.15;;;14.80;58.10;;;;;;7374708;19;19926;-77
2022/04/26 06:39:16;;;;;;;69.65;34.95;;;14.90;57.90;;;;;;7376225;19;20178;-76
2022/04/26 06:41:45;;;;;;;66.30;37.15;;;14.90;57.90;;;;;;7371326;19;20006;-76
2022/04/26 06:44:14;;;;;;;67.50;37.60;;;14.90;57.90;;;;;;7371853;19;20018;-77
2022/04/26 06:46:42;;;;;;;67.15;38.90;;;14.90;58.00;;;;;;7391079;19;20019;-76
2022/04/26 06:49:11;;;;;;;71.63;40.05;;;14.90;58.10;;;;;;7371301;19;20090;-77
2022/04/26 06:51:42;;;;;;;70.38;39.53;;;14.90;58.30;;;;;;7372518;19;20800;-77
2022/04/26 06:54:14;;;;;;;76.05;41.35;;;14.90;58.30;;;;;;7371309;19;20026;-76
2022/04/26 06:56:45;;;;;;;;;;;14.90;58.10;;;;;;7371308;19;20117;-77
2022/04/26 06:59:14;;;;;;;;;;;15.00;58.20;;;;;;7369197;19;19923;-76
2022/04/26 07:01:43;;;;;;;81.38;43.83;;;15.00;58.10;;;;;;7394181;19;20453;-76
2022/04/26 07:04:11;;;;;;;78.47;44.10;;;14.90;58.10;;;;;;7369157;19;20011;-76
2022/04/26 07:06:40;;;;;;;76.60;43.40;;;14.90;58.40;;;;;;7373079;19;20018;-78
2022/04/26 07:09:09;;;;;;;82.75;45.38;;;14.90;58.50;;;;;;7369741;19;20018;-80
2022/04/26 07:11:42;;;;;;;88.13;46.92;;;15.00;58.50;;;;;;7367506;19;20042;-77
2022/04/26 07:14:11;;;;;;;78.63;45.63;;;15.00;58.30;;;;;;7374305;19;20014;-78
2022/04/26 07:16:40;;;;;;;82.53;44.78;;;15.00;57.80;;;;;;7389060;19;20018;-79
2022/04/26 07:19:10;;;;;;;79.15;44.10;;;15.00;57.90;;;;;;7372028;19;20084;-77
2022/04/26 07:21:40;;;;;;;81.50;45.03;;;15.00;58.00;;;;;;7370394;19;20026;-77
2022/04/26 07:24:09;;;;;;;89.95;48.03;;;15.10;58.20;;;;;;7369879;19;20125;-77
2022/04/26 07:26:42;;;;;;;81.43;45.45;;;15.00;58.10;;;;;;7371561;19;20343;-78
2022/04/26 07:29:14;;;;;;;86.95;48.25;;;15.00;58.10;;;;;;7369390;19;20101;-77
2022/04/26 07:31:44;;;;;;;84.65;46.15;;;15.10;58.10;;;;;;7394490;19;20052;-77
2022/04/26 07:34:21;;;;;;;86.10;46.03;;;15.10;58.10;;;;;;7368217;19;20014;-76
2022/04/26 07:36:51;;;;;;;87.47;48.42;;;15.10;58.10;;;;;;7371735;19;20014;-77
2022/04/26 07:39:20;;;;;;;85.95;49.45;;;15.10;57.70;;;;;;7372428;19;20015;-77
2022/04/26 07:41:51;;;;;;;91.07;49.45;;;15.10;57.70;;;;;;7371455;19;20098;-77
2022/04/26 07:44:20;;;;;;;;;;;15.10;57.70;;;;;;7371991;19;20056;-77
2022/04/26 07:46:50;;;;;;;91.97;49.97;;;15.20;57.90;;;;;;7387484;19;19973;-76
2022/04/26 07:49:20;;;;;;;92.68;50.78;;;14.90;57.90;;;;;;7391781;19;20060;-76
2022/04/26 07:51:51;;;;;;;92.75;50.90;;;15.00;58.40;;;;;;7370052;19;20090;-76
2022/04/26 07:54:20;;;;;;;84.60;48.90;;;15.10;58.00;;;;;;7372233;19;20582;-77
2022/04/26 07:56:52;;;;;;;91.85;48.92;;;15.10;57.90;;;;;;7369459;19;20074;-76
2022/04/26 07:59:20;;;;;;;;;;;15.20;57.70;;;;;;7372213;19;20017;-77
2022/04/26 08:01:49;;;;;;;83.30;47.72;;;15.40;57.70;;;;;;7392298;19;19930;-77
2022/04/26 08:04:18;;;;;;;79.18;45.22;;;15.20;57.50;;;;;;7389642;19;20031;-76
2022/04/26 08:06:46;;;;;;;80.55;46.00;;;15.30;57.30;;;;;;7367578;19;20017;-77
2022/04/26 08:09:15;;;;;;;76.40;43.22;;;15.30;56.80;;;;;;7367881;19;20086;-76
2022/04/26 08:11:46;;;;;;;77.57;44.55;;;15.40;56.80;;;;;;7372067;19;20163;-76
2022/04/26 08:14:18;;;;;;;76.10;44.27;;;15.40;56.70;;;;;;7372953;19;20106;-76
2022/04/26 08:16:47;;;;;;;71.07;43.13;;;15.50;56.40;;;;;;7392489;19;20270;-76
2022/04/26 08:19:16;;;;;;;76.35;42.47;;;15.60;56.10;;;;;;7365756;19;20070;-76
2022/04/26 08:21:44;;;;;;;75.40;43.03;;;15.70;55.70;;;;;;7370042;19;20042;-76
2022/04/26 08:29:38;;;;;;;66.88;39.17;;;15.60;55.60;;;;;;7370470;19;20341;-77
2022/04/26 08:32:07;;;;;;;68.00;39.17;;;15.60;55.20;;;;;;7372625;19;20312;-77
2022/04/26 08:34:36;;;;;;;67.82;39.28;;;15.50;55.00;;;;;;7395250;19;20034;-77
2022/04/26 08:37:05;;;;;;;68.07;39.67;;;15.50;55.00;;;;;;7371944;19;20014;-77
2022/04/26 08:39:34;;;;;;;66.22;39.53;;;15.40;55.50;;;;;;7372936;19;20015;-77
2022/04/26 08:42:04;;;;;;;67.40;40.00;;;15.50;55.50;;;;;;7369644;19;20022;-77
2022/04/26 08:44:34;;;;;;;73.45;40.53;;;15.60;55.60;;;;;;7371980;19;20029;-77
2022/04/26 08:52:30;;;;;;;75.05;42.00;;;15.60;55.30;;;;;;7371073;19;20011;-77
2022/04/26 08:55:03;;;;;;;72.60;42.00;;;15.50;55.30;;;;;;7370821;19;20082;-77
2022/04/26 08:57:31;;;;;;;65.65;38.85;;;15.50;55.80;;;;;;7371249;19;20101;-77
2022/04/26 09:00:00;;;;;;;75.45;41.25;;;15.60;55.10;;;;;;7368042;19;20048;-77
2022/04/26 09:02:31;;;;;;;79.65;42.95;;;15.70;55.00;;;;;;7369164;19;20477;-76
2022/04/26 09:05:04;;;;;;;71.55;42.65;;;15.70;55.00;;;;;;7371202;19;20014;-77
2022/04/26 09:07:34;;;;;;;70.60;41.70;;;15.60;54.60;;;;;;7391573;19;20030;-76
2022/04/26 09:10:09;;;;;;;68.43;40.00;;;15.60;54.60;;;;;;7370101;19;20114;-76
2022/04/26 09:13:09;;;;;;;69.97;39.72;;;15.60;54.60;;;;;;7367419;19;20016;-76
2022/04/26 09:15:41;;;;;;;64.93;38.47;;;15.60;54.50;;;;;;7366391;19;20072;-78
2022/04/26 09:18:26;;;;;;;73.20;39.20;;;15.80;54.70;;;;;;7362597;19;20021;-78
2022/04/26 09:20:57;;;;;;;69.47;38.00;;;16.00;54.80;;;;;;7371188;19;20368;-76
2022/04/26 09:23:26;;;;;;;75.88;41.45;;;16.00;54.30;;;;;;7370774;19;20022;-76
2022/04/26 09:25:57;;;;;;;71.32;41.15;;;16.10;54.40;;;;;;7367659;19;20047;-77
2022/04/26 09:28:28;;;;;;;69.25;40.17;;;15.80;54.60;;;;;;7390363;19;20021;-77
2022/04/26 09:30:57;;;;;;;67.60;39.95;;;15.80;54.90;;;;;;7365994;19;20022;-76
2022/04/26 09:33:41;;;;;;;66.60;39.65;;;15.80;55.60;;;;;;7368632;19;20019;-76
2022/04/26 09:36:12;;;;;;;75.22;40.72;;;15.80;55.10;;;;;;7368364;19;20838;-76
2022/04/26 09:38:42;;;;;;;66.38;37.42;;;16.00;55.60;;;;;;7369730;19;20083;-77
2022/04/26 09:41:12;;;;;;;66.90;40.70;;;16.10;55.20;;;;;;7370328;19;20020;-78
2022/04/26 09:43:41;;;;;;;64.03;39.38;;;16.00;54.10;;;;;;7389476;19;20946;-78
2022/04/26 09:46:10;;;;;;;68.35;38.63;;;16.00;54.30;;;;;;7367846;19;20085;-77
2022/04/26 09:48:42;;;;;;;65.93;37.65;;;16.00;53.30;;;;;;7367458;19;20022;-79
2022/04/26 09:51:11;;;;;;;;;;;16.00;53.30;;;;;;7367506;19;20047;-77
2022/04/26 09:53:40;;;;;;;69.05;35.95;;;16.00;53.00;;;;;;7367696;19;19922;-77
2022/04/26 09:56:09;;;;;;;58.40;35.13;;;16.00;53.30;;;;;;7368479;19;20025;-77
2022/04/26 09:58:42;;;;;;;60.92;34.78;;;15.90;53.00;;;;;;7388050;19;20014;-76
2022/04/26 10:01:14;;;;;;;62.03;36.00;;;15.90;52.70;;;;;;7368312;19;20613;-78
2022/04/26 10:03:51;;;;;;;58.22;35.22;;;16.00;52.50;;;;;;7366861;19;20129;-78
2022/04/26 10:06:22;;;;;;;58.47;34.20;;;16.10;52.50;;;;;;7368699;19;20086;-78
2022/04/26 10:08:51;;;;;;;61.57;34.43;;;16.30;52.80;;;;;;7367369;19;20011;-77
2022/04/26 10:11:20;;;;;;;54.70;34.85;;;16.50;52.50;;;;;;7365826;19;20125;-78
2022/04/26 10:13:49;;;;;;;67.68;39.00;;;16.50;52.30;;;;;;7390852;19;20022;-77
2022/04/26 10:16:21;;;;;;;61.78;36.80;;;16.60;51.70;;;;;;7368006;19;20074;-77
2022/04/26 10:18:53;;;;;;;62.63;36.72;;;16.50;51.90;;;;;;7366493;19;20094;-77
2022/04/26 10:21:49;;;;;;;58.30;35.95;;;16.50;52.20;;;;;;7366844;19;20035;-78
2022/04/26 10:24:23;;;;;;;65.25;37.80;;;16.60;52.50;;;;;;7366501;19;20493;-78
2022/04/26 10:26:53;;;;;;;67.07;38.00;;;16.70;51.90;;;;;;7363261;19;20093;-78
2022/04/26 10:29:27;;;;;;;64.78;39.10;;;16.60;51.70;;;;;;7366761;19;20035;-78
2022/04/26 10:32:03;;;;;;;67.82;40.53;;;16.50;52.10;;;;;;7368736;19;20442;-77
2022/04/26 10:34:39;;;;;;;70.45;38.85;;;16.50;52.30;;;;;;7393966;19;20023;-78
2022/04/26 10:37:32;;;;;;;69.75;38.60;;;16.50;52.50;;;;;;7372625;19;20018;-78
2022/04/26 10:40:02;;;;;;;64.47;38.83;;;16.70;52.90;;;;;;7371454;19;20379;-78
2022/04/26 10:42:35;;;;;;;68.95;38.88;;;16.80;52.20;;;;;;7372905;19;20022;-78
2022/04/26 10:45:10;;;;;;;61.53;38.13;;;16.90;52.80;;;;;;7372033;19;20013;-78
2022/04/26 10:47:39;;;;;;;68.10;39.08;;;17.10;51.80;;;;;;7372812;19;20101;-78
2022/04/26 10:50:13;;;;;;;65.15;37.50;;;17.10;51.40;;;;;;7369921;19;20018;-81
2022/04/26 10:52:54;;;;;;;60.55;36.42;;;17.00;51.30;;;;;;7396849;19;20043;-77
2022/04/26 10:55:28;;;;;;;62.17;37.67;;;17.00;51.20;;;;;;7373748;19;20020;-77
2022/04/26 10:57:59;;;;;;;60.22;36.95;;;17.00;50.40;;;;;;7373853;19;20354;-76
2022/04/26 11:00:40;;;;;;;59.40;36.25;;;17.20;51.00;;;;;;7374941;19;20018;-77
2022/04/26 11:03:13;;;;;;;57.58;35.83;;;17.20;50.60;;;;;;7374932;19;20010;-76
2022/04/26 11:05:44;;;;;;;58.65;35.42;;;17.30;50.30;;;;;;7376560;19;20023;-76
2022/04/26 11:08:14;;;;;;;59.53;35.00;;;17.20;49.80;;;;;;7374745;19;20542;-76
2022/04/26 11:13:37;;;;;;;58.67;36.20;;;17.20;50.30;;;;;;7373974;19;20018;-76
2022/04/26 11:16:15;;;;;;;58.70;36.00;;;17.20;50.00;;;;;;7371165;19;20664;-76
2022/04/26 11:18:45;;;;;;;57.72;34.22;;;17.20;50.00;;;;;;7373966;19;20019;-76
2022/04/26 11:21:17;;;;;;;55.83;34.43;;;17.40;50.50;;;;;;7373738;19;20706;-76
2022/04/26 11:29:30;;;;;;;54.42;34.05;;;17.70;49.30;;;;;;7374696;19;20035;-77
2022/04/26 11:31:59;;;;;;;54.08;32.45;;;17.70;48.10;;;;;;7373808;19;20435;-77
2022/04/26 11:34:47;;;;;;;49.85;30.92;;;17.70;48.40;;;;;;7397231;19;20029;-77
2022/04/26 11:37:18;;;;;;;51.28;31.73;;;17.80;48.70;;;;;;7375339;19;20045;-76
2022/04/26 11:39:47;;;;;;;50.72;31.92;;;17.90;48.40;;;;;;7372911;19;20102;-76
2022/04/26 11:42:16;;;;;;;47.83;30.95;;;18.10;48.20;;;;;;7372736;19;20018;-77
2022/04/26 11:44:59;;;;;;;51.75;30.42;;;18.10;48.60;;;;;;7374531;19;20466;-77
2022/04/26 11:47:40;;;;;;;44.83;28.90;;;18.20;48.30;;;;;;7374273;19;20014;-75
2022/04/26 11:50:17;;;;;;;49.45;27.10;;;18.30;47.70;;;;;;7375092;19;20313;-77
2022/04/26 11:52:50;;;;;;;45.85;28.98;;;18.40;48.20;;;;;;7396357;19;20106;-76
2022/04/26 11:55:32;;;;;;;53.10;32.00;;;18.50;48.60;;;;;;7375078;19;20041;-77
2022/04/26 11:58:09;;;;;;;53.00;31.25;;;18.30;47.30;;;;;;7374073;19;20014;-78
2022/04/26 12:00:38;;;;;;;49.28;31.95;;;18.20;47.20;;;;;;7374190;19;20031;-77
2022/04/26 12:03:09;;;;;;;55.78;33.58;;;18.30;47.70;;;;;;7373357;19;20014;-77
2022/04/26 12:05:40;;;;;;;54.40;33.97;;;18.30;47.40;;;;;;7374692;19;20082;-76
2022/04/26 12:08:15;;;;;;;49.27;31.27;;;18.20;47.30;;;;;;7372866;19;20017;-77
2022/04/26 12:10:47;;;;;;;46.80;30.13;;;18.20;47.50;;;;;;7394486;19;20014;-76
2022/04/26 12:13:17;;;;;;;50.55;29.67;;;18.30;48.20;;;;;;7373390;19;20025;-77
2022/04/26 12:15:46;;;;;;;44.78;27.85;;;18.40;48.20;;;;;;7371001;19;20031;-77
2022/04/26 12:18:17;;;;;;;45.22;28.98;;;18.60;47.70;;;;;;7373852;19;20014;-77
2022/04/26 12:20:59;;;;;;;46.97;27.27;;;18.60;46.20;;;;;;7372224;19;20435;-77
2022/04/26 12:23:32;;;;;;;48.05;28.10;;;18.70;46.90;;;;;;7373431;19;20014;-78
2022/04/26 12:26:05;;;;;;;49.40;31.67;;;18.80;46.20;;;;;;7371301;19;20029;-77
2022/04/26 12:28:34;;;;;;;51.25;33.47;;;18.70;46.60;;;;;;7391624;19;20018;-78
2022/04/26 12:31:03;;;;;;;54.85;33.38;;;18.50;47.10;;;;;;7371986;19;20031;-77
2022/04/26 12:33:34;;;;;;;51.20;32.15;;;18.50;47.70;;;;;;7366490;19;20039;-78
2022/04/26 12:36:06;;;;;;;52.00;30.90;;;18.40;47.80;;;;;;7373526;19;20011;-75
2022/04/26 12:38:50;;;;;;;46.85;30.15;;;18.30;47.90;;;;;;7371870;19;20062;-76
2022/04/26 12:41:18;;;;;;;49.75;28.48;;;18.30;47.90;;;;;;7369894;19;20013;-76
2022/04/26 12:43:47;;;;;;;43.53;27.38;;;18.40;48.10;;;;;;7393104;19;20090;-76
2022/04/26 12:46:16;;;;;;;47.80;27.95;;;18.50;47.70;;;;;;7372808;19;20495;-77
2022/04/26 12:51:55;;;;;;;38.40;26.25;;;18.60;47.90;;;;;;7371747;19;20010;-76
2022/04/26 12:54:26;;;;;;;41.40;25.67;;;18.60;46.50;;;;;;7369262;19;20125;-76
2022/04/26 12:56:58;;;;;;;;;;;18.80;46.80;;;;;;7370036;19;20101;-76
2022/04/26 12:59:36;;;;;;;41.42;25.75;;;18.90;46.90;;;;;;7368892;19;19914;-76
2022/04/26 13:02:06;;;;;;;40.95;25.48;;;18.90;46.10;;;;;;7367620;19;20748;-76
2022/04/26 13:04:35;;;;;;;38.75;23.67;;;19.00;46.70;;;;;;7392312;19;20022;-77
2022/04/26 13:07:05;;;;;;;39.40;25.67;;;19.10;47.60;;;;;;7370810;19;20490;-75
2022/04/26 13:09:36;;;;;;;44.55;25.88;;;19.30;46.60;;;;;;7370035;19;20021;-75
2022/04/26 13:12:05;;;;;;;37.80;23.63;;;19.40;46.10;;;;;;7369268;19;20117;-75
2022/04/26 13:14:34;;;;;;;36.83;24.05;;;19.50;46.10;;;;;;7367966;19;20018;-75
2022/04/26 13:17:07;;;;;;;36.75;22.60;;;19.50;45.40;;;;;;7367127;19;20029;-75
2022/04/26 13:19:38;;;;;;;37.80;24.88;;;19.50;46.00;;;;;;7390222;19;20018;-75
2022/04/26 13:22:07;;;;;;;35.15;23.08;;;19.50;45.00;;;;;;7365260;19;20082;-75
2022/04/26 13:24:39;;;;;;;34.35;21.67;;;19.50;44.80;;;;;;7369931;19;20018;-76
2022/04/26 13:27:09;;;;;;;31.38;21.88;;;19.50;45.40;;;;;;7370989;19;20019;-76
2022/04/26 13:29:37;;;;;;;31.92;20.45;;;19.30;45.00;;;;;;7369112;19;20025;-76
2022/04/26 13:32:07;;;;;;;34.15;21.27;;;19.40;45.60;;;;;;7369804;19;20018;-75
2022/04/26 13:34:35;;;;;;;33.47;20.95;;;19.30;45.40;;;;;;7391184;19;20019;-75
2022/04/26 13:37:07;;;;;;;32.05;21.73;;;19.20;45.80;;;;;;7370165;19;20067;-76
2022/04/26 13:39:39;;;;;;;31.25;19.77;;;19.20;45.80;;;;;;7371121;19;20447;-80
2022/04/26 13:42:09;;;;;;;33.22;20.85;;;19.20;46.40;;;;;;7368973;19;20016;-78
2022/04/26 13:44:38;;;;;;;27.00;19.27;;;19.20;46.50;;;;;;7371916;19;20505;-76
2022/04/26 13:47:08;;;;;;;31.58;19.50;;;19.30;45.60;;;;;;7366044;19;20022;-77
2022/04/26 13:49:39;;;;;;;31.75;17.13;;;19.30;45.20;;;;;;7392190;19;20090;-76
2022/04/26 13:52:09;;;;;;;26.17;17.50;;;19.40;45.60;;;;;;7368540;19;20014;-76
2022/04/26 13:54:42;;;;;;;24.67;15.90;;;19.40;45.20;;;;;;7367356;19;20021;-79
2022/04/26 13:57:11;;;;;;;21.35;15.00;;;19.20;44.70;;;;;;7370255;19;20010;-78
2022/04/26 13:59:40;;;;;;;22.65;16.10;;;19.20;44.80;;;;;;7367583;19;20090;-79
2022/04/26 14:02:09;;;;;;;22.85;15.98;;;19.20;45.00;;;;;;7364127;19;20466;-77
2022/04/26 14:04:39;;;;;;;20.48;14.75;;;19.20;45.30;;;;;;7410538;19;20022;-83
2022/04/26 14:07:08;;;;;;;21.10;14.88;;;19.30;45.70;;;;;;7382712;19;20032;-82
2022/04/26 14:09:41;;;;;;;22.75;15.23;;;19.40;44.90;;;;;;7387954;19;20438;-84
2022/04/26 14:12:14;;;;;;;25.85;15.25;;;19.40;44.30;;;;;;7387501;19;20051;-83
2022/04/26 14:22:47;;;;;;;25.10;15.55;;;19.30;44.40;;;;;;7402296;19;19979;-84
2022/04/26 14:25:18;;;;;;;22.77;16.25;;;19.30;45.50;;;;;;7379945;19;20021;-83
2022/04/26 14:27:49;;;;;;;23.50;15.68;;;19.30;44.60;;;;;;7379668;19;20014;-85
2022/04/26 14:30:18;;;;;;;22.53;15.50;;;19.40;44.60;;;;;;7381975;19;20457;-85
2022/04/26 14:32:48;;;;;;;20.08;14.05;;;19.40;45.20;;;;;;7380075;19;20597;-82
2022/04/26 14:35:17;;;;;;;25.77;14.02;;;19.40;44.80;;;;;;7377036;19;20438;-81
2022/04/26 14:37:46;;;;;;;21.55;12.85;;;19.40;44.80;;;;;;7400355;19;20044;-82
2022/04/26 14:40:18;;;;;;;22.48;13.57;;;19.50;45.20;;;;;;7376841;19;20084;-81
2022/04/26 14:42:47;;;;;;;17.98;13.70;;;19.60;45.10;;;;;;7377391;19;20052;-85
2022/04/26 14:45:16;;;;;;;17.67;12.07;;;19.70;44.10;;;;;;7377965;19;20358;-82
2022/04/26 14:47:45;;;;;;;21.38;13.88;;;19.70;43.70;;;;;;7377086;19;20015;-80
2022/04/26 14:50:15;;;;;;;20.65;13.48;;;19.90;43.60;;;;;;7376406;19;20062;-82
2022/04/26 14:52:44;;;;;;;18.25;13.20;;;19.90;44.00;;;;;;7402245;19;20082;-86
2022/04/26 14:55:13;;;;;;;17.13;12.30;;;19.80;43.00;;;;;;7378532;19;20427;-83
2022/04/26 14:57:45;;;;;;;18.48;12.35;;;19.90;43.60;;;;;;7377250;19;20046;-83
2022/04/26 15:00:15;;;;;;;16.77;11.77;;;19.90;43.10;;;;;;7376973;19;20018;-82
2022/04/26 15:02:44;;;;;;;12.40;9.75;;;19.90;43.60;;;;;;7375146;19;20103;-82
2022/04/26 15:05:13;;;;;;;18.42;10.45;;;20.00;44.00;;;;;;7375204;19;20046;-80
2022/04/26 15:10:24;;;;;;;17.58;10.38;;;20.00;43.10;;;;;;7378234;19;20020;-83
2022/04/26 15:18:18;;;;;;;17.13;10.63;;;20.10;43.70;;;;;;7381154;19;20048;-81
2022/04/26 15:20:51;;;;;;;14.10;10.27;;;20.20;43.60;;;;;;7377764;19;20028;-81
2022/04/26 15:23:21;;;;;;;13.07;8.77;;;20.20;43.60;;;;;;7381082;19;20070;-83
2022/04/26 15:25:52;;;;;;;14.85;9.63;;;20.20;43.70;;;;;;7399757;19;20019;-82
2022/04/26 15:28:25;;;;;;;16.42;9.13;;;20.30;43.90;;;;;;7375142;19;20014;-83
2022/04/26 15:30:54;;;;;;;11.07;8.95;;;20.30;43.50;;;;;;7375416;19;20044;-83
2022/04/26 15:33:24;;;;;;;14.38;10.55;;;20.30;43.40;;;;;;7375242;19;20053;-83
2022/04/26 15:35:57;;;;;;;14.32;10.02;;;20.30;42.90;;;;;;7377886;19;20015;-83
2022/04/26 15:38:29;;;;;;;11.20;8.68;;;20.30;43.30;;;;;;7378808;19;20014;-84
2022/04/26 15:41:05;;;;;;;13.55;8.70;;;20.30;43.60;;;;;;7373782;19;20018;-81
2022/04/26 15:43:38;;;;;;;10.55;8.25;;;20.20;43.80;;;;;;7398835;19;20082;-83
2022/04/26 15:46:11;;;;;;;13.15;8.20;;;20.20;43.60;;;;;;7384301;19;20023;-85
2022/04/26 15:48:47;;;;;;;10.63;8.18;;;20.20;43.90;;;;;;7373747;19;20014;-83
2022/04/26 15:51:18;;;;;;;10.57;7.88;;;20.30;44.40;;;;;;7373494;19;20083;-82
2022/04/26 15:53:48;;;;;;;11.25;7.47;;;20.30;43.60;;;;;;7376413;19;20072;-82
2022/04/26 15:56:17;;;;;;;8.68;7.53;;;20.30;43.20;;;;;;7375698;19;20083;-82
2022/04/26 15:58:48;;;;;;;10.05;6.88;;;20.40;42.90;;;;;;7399946;19;20038;-81
2022/04/26 16:01:17;;;;;;;;;;;20.40;42.60;;;;;;7376391;19;20122;-81
2022/04/26 16:03:46;;;;;;;13.93;8.75;;;20.50;42.50;;;;;;7376839;19;19911;-84
2022/04/26 16:06:16;;;;;;;7.65;6.30;;;20.40;42.50;;;;;;7376597;19;20034;-85
2022/04/26 16:08:46;;;;;;;10.47;6.07;;;20.40;42.60;;;;;;7384727;19;20103;-83
2022/04/26 16:22:03;;;;;;;7.40;5.70;;;22.60;40.20;;;;;;7381375;19;20007;-82
2022/04/26 16:24:38;;;;;;;10.30;6.10;;;23.40;38.10;;;;;;7380888;19;20022;-84
2022/04/26 16:27:07;;;;;;;7.50;6.03;;;23.90;37.20;;;;;;7378523;19;20053;-83
2022/04/26 16:29:40;;;;;;;8.07;5.88;;;24.80;36.00;;;;;;7375415;19;20006;-85
2022/04/26 16:43:14;;;;;;;9.77;5.65;;;24.40;34.70;;;;;;7377198;19;20340;-90
2022/04/26 16:45:46;;;;;;;10.73;6.70;;;23.70;36.10;;;;;;7375136;19;20018;-81
2022/04/26 16:48:15;;;;;;;8.20;5.95;;;23.20;36.60;;;;;;7379438;19;20026;-84
2022/04/26 16:50:44;;;;;;;9.77;5.65;;;23.00;37.70;;;;;;7381569;19;20030;-83
2022/04/26 16:53:13;;;;;;;6.85;5.38;;;23.70;37.10;;;;;;7382639;19;20022;-83
2022/04/26 16:55:46;;;;;;;8.77;5.55;;;25.00;35.40;;;;;;7398930;19;20384;-82
2022/04/26 16:58:16;;;;;;;9.90;6.68;;;25.80;33.80;;;;;;7374173;19;20018;-83
2022/04/26 17:00:48;;;;;;;10.32;6.55;;;25.70;33.20;;;;;;7374067;19;20011;-82
2022/04/26 17:03:18;;;;;;;10.75;5.97;;;25.00;34.00;;;;;;7374082;19;20459;-82
2022/04/26 17:05:48;;;;;;;7.45;5.55;;;24.40;35.00;;;;;;7375028;19;20328;-82
2022/04/26 17:08:17;;;;;;;9.50;6.72;;;24.00;36.10;;;;;;7378390;19;20074;-82
2022/04/26 17:10:47;;;;;;;9.25;6.55;;;23.70;35.90;;;;;;7396286;19;20023;-82
2022/04/26 17:13:16;;;;;;;10.52;6.53;;;24.00;36.20;;;;;;7379051;19;20015;-83
2022/04/26 17:15:48;;;;;;;7.38;5.57;;;24.90;35.00;;;;;;7378852;19;20015;-82
2022/04/26 17:18:16;;;;;;;7.85;5.30;;;25.90;33.50;;;;;;7377611;19;20020;-82
2022/04/26 17:20:45;;;;;;;9.25;5.00;;;26.50;32.50;;;;;;7376839;19;20459;-82
2022/04/26 17:23:15;;;;;;;6.85;5.45;;;26.80;32.70;;;;;;7377880;19;20506;-82
2022/04/26 17:25:44;;;;;;;8.07;4.90;;;27.10;31.60;;;;;;7396807;19;20039;-82
2022/04/26 17:28:13;;;;;;;7.32;5.00;;;27.00;31.00;;;;;;7373105;19;20022;-84